sensor_id;sensor_type;location;lat;lon;timestamp;P1;durP1;ratioP1;P2;durP2;ratioP2
33794;SDS011;51430;52.242;21.118;2022-10-13T00:02:02;57.10;;;37.30;;
33794;SDS011;51430;52.242;21.118;2022-10-13T00:05:41;62.20;;;37.00;;
33794;SDS011;51430;52.242;21.118;2022-10-13T00:09:19;55.30;;;37.30;;
33794;SDS011;51430;52.242;21.118;2022-10-13T00:12:59;52.20;;;35.10;;
33794;SDS011;51430;52.242;21.118;2022-10-13T00:16:36;45.70;;;31.60;;
33794;SDS011;51430;52.242;21.118;2022-10-13T00:20:13;44.40;;;30.00;;
33794;SDS011;51430;52.242;21.118;2022-10-13T00:23:51;45.40;;;29.30;;
33794;SDS011;51430;52.242;21.118;2022-10-13T00:27:28;43.60;;;29.80;;
33794;SDS011;51430;52.242;21.118;2022-10-13T00:31:13;39.20;;;27.40;;
33794;SDS011;51430;52.242;21.118;2022-10-13T00:34:50;38.20;;;27.60;;
33794;SDS011;51430;52.242;21.118;2022-10-13T00:38:28;40.20;;;28.50;;
33794;SDS011;51430;52.242;21.118;2022-10-13T00:42:05;49.30;;;30.90;;
33794;SDS011;51430;52.242;21.118;2022-10-13T00:45:45;48.20;;;32.60;;
33794;SDS011;51430;52.242;21.118;2022-10-13T00:49:24;47.30;;;32.00;;
33794;SDS011;51430;52.242;21.118;2022-10-13T00:53:03;50.30;;;32.00;;
33794;SDS011;51430;52.242;21.118;2022-10-13T00:56:50;51.10;;;31.70;;
33794;SDS011;51430;52.242;21.118;2022-10-13T01:00:28;51.30;;;32.20;;
33794;SDS011;51430;52.242;21.118;2022-10-13T01:04:06;50.80;;;31.00;;
33794;SDS011;51430;52.242;21.118;2022-10-13T01:07:44;46.80;;;31.50;;
33794;SDS011;51430;52.242;21.118;2022-10-13T01:15:33;48.80;;;32.80;;
33794;SDS011;51430;52.242;21.118;2022-10-13T01:27:21;58.60;;;37.10;;
33794;SDS011;51430;52.242;21.118;2022-10-13T01:31:36;58.90;;;36.10;;
33794;SDS011;51430;52.242;21.118;2022-10-13T01:36:08;56.00;;;37.50;;
33794;SDS011;51430;52.242;21.118;2022-10-13T01:40:11;54.80;;;37.10;;
33794;SDS011;51430;52.242;21.118;2022-10-13T01:44:14;57.70;;;36.80;;
33794;SDS011;51430;52.242;21.118;2022-10-13T01:48:17;54.60;;;37.20;;
33794;SDS011;51430;52.242;21.118;2022-10-13T01:51:59;56.00;;;35.70;;
33794;SDS011;51430;52.242;21.118;2022-10-13T01:56:00;52.90;;;38.10;;
33794;SDS011;51430;52.242;21.118;2022-10-13T01:59:40;57.70;;;37.10;;
33794;SDS011;51430;52.242;21.118;2022-10-13T02:03:22;55.50;;;36.90;;
33794;SDS011;51430;52.242;21.118;2022-10-13T02:07:28;53.40;;;36.80;;
33794;SDS011;51430;52.242;21.118;2022-10-13T02:11:18;53.70;;;34.90;;
33794;SDS011;51430;52.242;21.118;2022-10-13T02:15:02;56.70;;;37.40;;
33794;SDS011;51430;52.242;21.118;2022-10-13T02:18:43;52.20;;;38.50;;
33794;SDS011;51430;52.242;21.118;2022-10-13T02:22:23;54.00;;;38.20;;
33794;SDS011;51430;52.242;21.118;2022-10-13T02:26:05;57.10;;;39.60;;
33794;SDS011;51430;52.242;21.118;2022-10-13T02:29:49;56.80;;;40.40;;
33794;SDS011;51430;52.242;21.118;2022-10-13T02:33:27;65.20;;;42.20;;
33794;SDS011;51430;52.242;21.118;2022-10-13T02:37:06;62.30;;;41.90;;
33794;SDS011;51430;52.242;21.118;2022-10-13T02:40:43;60.80;;;40.60;;
33794;SDS011;51430;52.242;21.118;2022-10-13T02:44:21;58.90;;;40.20;;
33794;SDS011;51430;52.242;21.118;2022-10-13T02:47:59;57.80;;;41.10;;
33794;SDS011;51430;52.242;21.118;2022-10-13T02:51:41;57.30;;;40.70;;
33794;SDS011;51430;52.242;21.118;2022-10-13T02:55:29;56.60;;;38.80;;
33794;SDS011;51430;52.242;21.118;2022-10-13T02:59:06;56.10;;;40.00;;
33794;SDS011;51430;52.242;21.118;2022-10-13T03:02:52;55.10;;;39.40;;
33794;SDS011;51430;52.242;21.118;2022-10-13T03:06:30;53.80;;;38.30;;
33794;SDS011;51430;52.242;21.118;2022-10-13T03:10:28;57.10;;;39.30;;
33794;SDS011;51430;52.242;21.118;2022-10-13T03:14:17;59.80;;;41.40;;
33794;SDS011;51430;52.242;21.118;2022-10-13T03:18:14;52.30;;;38.60;;
33794;SDS011;51430;52.242;21.118;2022-10-13T03:21:52;55.10;;;37.30;;
33794;SDS011;51430;52.242;21.118;2022-10-13T03:25:33;51.10;;;36.90;;
33794;SDS011;51430;52.242;21.118;2022-10-13T03:29:15;52.00;;;37.80;;
33794;SDS011;51430;52.242;21.118;2022-10-13T03:32:53;53.90;;;37.80;;
33794;SDS011;51430;52.242;21.118;2022-10-13T03:36:49;53.20;;;36.50;;
33794;SDS011;51430;52.242;21.118;2022-10-13T03:40:28;54.40;;;36.30;;
33794;SDS011;51430;52.242;21.118;2022-10-13T03:44:11;48.30;;;36.70;;
33794;SDS011;51430;52.242;21.118;2022-10-13T03:47:49;51.80;;;35.60;;
33794;SDS011;51430;52.242;21.118;2022-10-13T03:51:44;48.40;;;35.60;;
33794;SDS011;51430;52.242;21.118;2022-10-13T03:55:24;53.00;;;37.10;;
33794;SDS011;51430;52.242;21.118;2022-10-13T03:59:02;49.70;;;35.50;;
33794;SDS011;51430;52.242;21.118;2022-10-13T04:02:41;53.60;;;35.90;;
33794;SDS011;51430;52.242;21.118;2022-10-13T04:06:18;62.10;;;36.70;;
33794;SDS011;51430;52.242;21.118;2022-10-13T04:10:09;57.30;;;35.20;;
33794;SDS011;51430;52.242;21.118;2022-10-13T04:13:48;52.10;;;35.60;;
33794;SDS011;51430;52.242;21.118;2022-10-13T04:17:34;50.00;;;34.30;;
33794;SDS011;51430;52.242;21.118;2022-10-13T04:21:14;53.80;;;35.10;;
33794;SDS011;51430;52.242;21.118;2022-10-13T04:24:57;53.60;;;35.40;;
33794;SDS011;51430;52.242;21.118;2022-10-13T04:28:44;56.00;;;35.30;;
33794;SDS011;51430;52.242;21.118;2022-10-13T04:32:22;56.30;;;36.40;;
33794;SDS011;51430;52.242;21.118;2022-10-13T04:36:04;56.60;;;36.20;;
33794;SDS011;51430;52.242;21.118;2022-10-13T04:39:42;63.50;;;37.00;;
33794;SDS011;51430;52.242;21.118;2022-10-13T04:43:20;58.90;;;36.40;;
33794;SDS011;51430;52.242;21.118;2022-10-13T04:46:59;56.50;;;34.80;;
33794;SDS011;51430;52.242;21.118;2022-10-13T04:50:36;53.90;;;34.30;;
33794;SDS011;51430;52.242;21.118;2022-10-13T04:54:13;56.80;;;35.00;;
33794;SDS011;51430;52.242;21.118;2022-10-13T04:57:51;56.10;;;35.30;;
33794;SDS011;51430;52.242;21.118;2022-10-13T05:01:29;52.70;;;35.30;;
33794;SDS011;51430;52.242;21.118;2022-10-13T05:05:07;48.90;;;33.40;;
33794;SDS011;51430;52.242;21.118;2022-10-13T05:08:46;48.80;;;34.50;;
33794;SDS011;51430;52.242;21.118;2022-10-13T05:12:23;46.40;;;33.80;;
33794;SDS011;51430;52.242;21.118;2022-10-13T05:16:04;45.40;;;34.00;;
33794;SDS011;51430;52.242;21.118;2022-10-13T05:19:44;47.60;;;34.90;;
33794;SDS011;51430;52.242;21.118;2022-10-13T05:23:20;49.50;;;34.70;;
33794;SDS011;51430;52.242;21.118;2022-10-13T05:26:58;48.10;;;34.50;;
33794;SDS011;51430;52.242;21.118;2022-10-13T05:30:36;47.00;;;34.20;;
33794;SDS011;51430;52.242;21.118;2022-10-13T05:34:13;48.00;;;35.10;;
33794;SDS011;51430;52.242;21.118;2022-10-13T05:37:51;48.70;;;34.20;;
33794;SDS011;51430;52.242;21.118;2022-10-13T05:41:29;48.90;;;35.10;;
33794;SDS011;51430;52.242;21.118;2022-10-13T05:45:06;48.40;;;33.80;;
33794;SDS011;51430;52.242;21.118;2022-10-13T05:48:45;47.70;;;33.60;;
33794;SDS011;51430;52.242;21.118;2022-10-13T05:52:23;49.70;;;33.90;;
33794;SDS011;51430;52.242;21.118;2022-10-13T05:56:03;42.40;;;32.30;;
33794;SDS011;51430;52.242;21.118;2022-10-13T05:59:44;46.40;;;33.60;;
33794;SDS011;51430;52.242;21.118;2022-10-13T06:03:45;48.20;;;32.20;;
33794;SDS011;51430;52.242;21.118;2022-10-13T06:07:03;50.00;;;33.60;;
33794;SDS011;51430;52.242;21.118;2022-10-13T06:10:41;49.50;;;32.00;;
33794;SDS011;51430;52.242;21.118;2022-10-13T06:14:19;43.50;;;33.10;;
33794;SDS011;51430;52.242;21.118;2022-10-13T06:17:56;48.50;;;34.20;;
33794;SDS011;51430;52.242;21.118;2022-10-13T06:21:34;49.80;;;33.00;;
33794;SDS011;51430;52.242;21.118;2022-10-13T06:25:11;49.10;;;33.50;;
33794;SDS011;51430;52.242;21.118;2022-10-13T06:28:49;46.20;;;33.50;;
33794;SDS011;51430;52.242;21.118;2022-10-13T06:32:32;47.90;;;35.30;;
33794;SDS011;51430;52.242;21.118;2022-10-13T06:36:10;47.20;;;32.20;;
33794;SDS011;51430;52.242;21.118;2022-10-13T06:39:47;47.90;;;35.50;;
33794;SDS011;51430;52.242;21.118;2022-10-13T06:43:25;45.20;;;33.00;;
33794;SDS011;51430;52.242;21.118;2022-10-13T06:47:14;45.60;;;32.80;;
33794;SDS011;51430;52.242;21.118;2022-10-13T06:50:52;43.90;;;33.20;;
33794;SDS011;51430;52.242;21.118;2022-10-13T06:54:32;48.50;;;32.70;;
33794;SDS011;51430;52.242;21.118;2022-10-13T06:58:10;45.40;;;32.50;;
33794;SDS011;51430;52.242;21.118;2022-10-13T07:01:49;43.70;;;33.40;;
33794;SDS011;51430;52.242;21.118;2022-10-13T07:05:26;46.80;;;31.70;;
33794;SDS011;51430;52.242;21.118;2022-10-13T07:09:04;39.00;;;29.10;;
33794;SDS011;51430;52.242;21.118;2022-10-13T07:12:42;41.60;;;30.40;;
33794;SDS011;51430;52.242;21.118;2022-10-13T07:16:20;44.50;;;30.80;;
33794;SDS011;51430;52.242;21.118;2022-10-13T07:19:57;39.40;;;29.20;;
33794;SDS011;51430;52.242;21.118;2022-10-13T07:23:38;38.80;;;28.00;;
33794;SDS011;51430;52.242;21.118;2022-10-13T07:27:16;44.40;;;28.90;;
33794;SDS011;51430;52.242;21.118;2022-10-13T07:30:53;36.50;;;25.60;;
33794;SDS011;51430;52.242;21.118;2022-10-13T07:34:31;39.00;;;27.40;;
33794;SDS011;51430;52.242;21.118;2022-10-13T07:38:09;38.40;;;25.10;;
33794;SDS011;51430;52.242;21.118;2022-10-13T07:41:46;30.60;;;22.10;;
33794;SDS011;51430;52.242;21.118;2022-10-13T07:45:26;34.10;;;22.60;;
33794;SDS011;51430;52.242;21.118;2022-10-13T07:49:03;30.50;;;21.90;;
33794;SDS011;51430;52.242;21.118;2022-10-13T07:52:41;33.40;;;22.10;;
33794;SDS011;51430;52.242;21.118;2022-10-13T07:56:19;32.80;;;21.70;;
33794;SDS011;51430;52.242;21.118;2022-10-13T07:59:57;29.30;;;19.60;;
33794;SDS011;51430;52.242;21.118;2022-10-13T08:03:34;28.30;;;18.10;;
33794;SDS011;51430;52.242;21.118;2022-10-13T08:07:13;27.20;;;18.00;;
33794;SDS011;51430;52.242;21.118;2022-10-13T08:10:52;27.50;;;16.50;;
33794;SDS011;51430;52.242;21.118;2022-10-13T08:14:33;25.50;;;16.40;;
33794;SDS011;51430;52.242;21.118;2022-10-13T08:18:11;28.70;;;17.00;;
33794;SDS011;51430;52.242;21.118;2022-10-13T08:21:48;26.70;;;15.90;;
33794;SDS011;51430;52.242;21.118;2022-10-13T08:25:38;25.60;;;16.40;;
33794;SDS011;51430;52.242;21.118;2022-10-13T08:29:15;25.40;;;16.30;;
33794;SDS011;51430;52.242;21.118;2022-10-13T08:32:59;21.10;;;15.70;;
33794;SDS011;51430;52.242;21.118;2022-10-13T08:36:37;23.30;;;15.60;;
33794;SDS011;51430;52.242;21.118;2022-10-13T08:40:16;24.50;;;14.40;;
33794;SDS011;51430;52.242;21.118;2022-10-13T08:44:05;22.80;;;14.00;;
33794;SDS011;51430;52.242;21.118;2022-10-13T08:48:14;22.00;;;13.00;;
33794;SDS011;51430;52.242;21.118;2022-10-13T08:51:58;27.30;;;14.10;;
33794;SDS011;51430;52.242;21.118;2022-10-13T08:55:41;19.50;;;12.50;;
33794;SDS011;51430;52.242;21.118;2022-10-13T08:59:23;19.70;;;12.30;;
33794;SDS011;51430;52.242;21.118;2022-10-13T09:03:06;17.20;;;10.90;;
33794;SDS011;51430;52.242;21.118;2022-10-13T09:06:56;17.80;;;10.40;;
33794;SDS011;51430;52.242;21.118;2022-10-13T09:10:46;19.70;;;10.20;;
33794;SDS011;51430;52.242;21.118;2022-10-13T09:14:29;13.60;;;9.40;;
33794;SDS011;51430;52.242;21.118;2022-10-13T09:18:10;18.50;;;9.90;;
33794;SDS011;51430;52.242;21.118;2022-10-13T09:21:50;17.10;;;10.60;;
33794;SDS011;51430;52.242;21.118;2022-10-13T09:25:29;18.40;;;9.30;;
33794;SDS011;51430;52.242;21.118;2022-10-13T09:29:19;21.40;;;10.40;;
33794;SDS011;51430;52.242;21.118;2022-10-13T09:36:55;15.10;;;8.40;;
33794;SDS011;51430;52.242;21.118;2022-10-13T09:40:32;24.60;;;9.10;;
33794;SDS011;51430;52.242;21.118;2022-10-13T09:44:30;12.40;;;8.10;;
33794;SDS011;51430;52.242;21.118;2022-10-13T09:48:07;13.90;;;7.60;;
33794;SDS011;51430;52.242;21.118;2022-10-13T09:51:59;14.70;;;8.00;;
33794;SDS011;51430;52.242;21.118;2022-10-13T09:55:39;10.80;;;6.30;;
33794;SDS011;51430;52.242;21.118;2022-10-13T09:59:23;10.40;;;6.70;;
33794;SDS011;51430;52.242;21.118;2022-10-13T10:03:25;11.60;;;6.70;;
33794;SDS011;51430;52.242;21.118;2022-10-13T10:07:15;10.10;;;7.00;;
33794;SDS011;51430;52.242;21.118;2022-10-13T10:10:59;13.20;;;5.60;;
33794;SDS011;51430;52.242;21.118;2022-10-13T10:14:37;11.90;;;6.20;;
33794;SDS011;51430;52.242;21.118;2022-10-13T10:26:13;12.90;;;5.80;;
33794;SDS011;51430;52.242;21.118;2022-10-13T10:30:13;13.10;;;5.20;;
33794;SDS011;51430;52.242;21.118;2022-10-13T10:34:02;7.80;;;5.10;;
33794;SDS011;51430;52.242;21.118;2022-10-13T10:42:43;9.50;;;5.10;;
33794;SDS011;51430;52.242;21.118;2022-10-13T10:46:18;9.50;;;4.90;;
33794;SDS011;51430;52.242;21.118;2022-10-13T10:50:02;8.10;;;4.30;;
33794;SDS011;51430;52.242;21.118;2022-10-13T10:53:44;12.10;;;4.60;;
33794;SDS011;51430;52.242;21.118;2022-10-13T11:10:03;8.20;;;4.10;;
33794;SDS011;51430;52.242;21.118;2022-10-13T11:14:00;6.80;;;4.60;;
33794;SDS011;51430;52.242;21.118;2022-10-13T11:17:40;8.10;;;3.70;;
33794;SDS011;51430;52.242;21.118;2022-10-13T11:21:19;8.70;;;3.60;;
33794;SDS011;51430;52.242;21.118;2022-10-13T11:24:57;6.60;;;3.40;;
33794;SDS011;51430;52.242;21.118;2022-10-13T11:40:15;10.70;;;3.90;;
33794;SDS011;51430;52.242;21.118;2022-10-13T11:44:48;5.30;;;3.20;;
33794;SDS011;51430;52.242;21.118;2022-10-13T11:52:10;8.20;;;3.70;;
33794;SDS011;51430;52.242;21.118;2022-10-13T11:55:56;6.90;;;3.30;;
33794;SDS011;51430;52.242;21.118;2022-10-13T11:59:54;9.00;;;3.60;;
33794;SDS011;51430;52.242;21.118;2022-10-13T12:03:33;8.20;;;3.40;;
33794;SDS011;51430;52.242;21.118;2022-10-13T12:07:11;8.30;;;3.70;;
33794;SDS011;51430;52.242;21.118;2022-10-13T12:10:52;4.30;;;3.00;;
33794;SDS011;51430;52.242;21.118;2022-10-13T12:14:37;5.80;;;3.10;;
33794;SDS011;51430;52.242;21.118;2022-10-13T12:18:22;6.20;;;3.00;;
33794;SDS011;51430;52.242;21.118;2022-10-13T12:22:00;6.60;;;3.00;;
33794;SDS011;51430;52.242;21.118;2022-10-13T12:25:37;7.10;;;3.20;;
33794;SDS011;51430;52.242;21.118;2022-10-13T12:29:16;8.10;;;3.60;;
33794;SDS011;51430;52.242;21.118;2022-10-13T12:32:55;8.60;;;3.50;;
33794;SDS011;51430;52.242;21.118;2022-10-13T12:36:38;6.20;;;3.40;;
33794;SDS011;51430;52.242;21.118;2022-10-13T12:40:16;6.90;;;3.40;;
33794;SDS011;51430;52.242;21.118;2022-10-13T12:43:54;8.30;;;3.90;;
33794;SDS011;51430;52.242;21.118;2022-10-13T12:51:24;5.40;;;2.80;;
33794;SDS011;51430;52.242;21.118;2022-10-13T12:55:22;9.20;;;3.70;;
33794;SDS011;51430;52.242;21.118;2022-10-13T12:58:41;7.20;;;3.30;;
33794;SDS011;51430;52.242;21.118;2022-10-13T13:02:28;7.90;;;3.20;;
33794;SDS011;51430;52.242;21.118;2022-10-13T13:09:59;7.50;;;3.10;;
33794;SDS011;51430;52.242;21.118;2022-10-13T13:13:38;8.30;;;3.40;;
33794;SDS011;51430;52.242;21.118;2022-10-13T13:21:17;9.40;;;3.50;;
33794;SDS011;51430;52.242;21.118;2022-10-13T13:24:55;8.10;;;3.40;;
33794;SDS011;51430;52.242;21.118;2022-10-13T13:28:32;7.40;;;3.60;;
33794;SDS011;51430;52.242;21.118;2022-10-13T13:32:13;6.30;;;3.20;;
33794;SDS011;51430;52.242;21.118;2022-10-13T13:35:54;8.30;;;3.70;;
33794;SDS011;51430;52.242;21.118;2022-10-13T13:39:32;7.80;;;3.80;;
33794;SDS011;51430;52.242;21.118;2022-10-13T13:43:11;7.50;;;3.70;;
33794;SDS011;51430;52.242;21.118;2022-10-13T13:46:47;9.60;;;4.40;;
33794;SDS011;51430;52.242;21.118;2022-10-13T13:50:27;9.90;;;4.80;;
33794;SDS011;51430;52.242;21.118;2022-10-13T13:54:08;13.50;;;4.10;;
33794;SDS011;51430;52.242;21.118;2022-10-13T13:57:45;10.20;;;4.90;;
33794;SDS011;51430;52.242;21.118;2022-10-13T14:01:23;8.80;;;4.80;;
33794;SDS011;51430;52.242;21.118;2022-10-13T14:05:01;11.70;;;4.80;;
33794;SDS011;51430;52.242;21.118;2022-10-13T14:08:38;16.10;;;5.20;;
33794;SDS011;51430;52.242;21.118;2022-10-13T14:12:17;9.90;;;5.10;;
33794;SDS011;51430;52.242;21.118;2022-10-13T14:15:57;8.60;;;4.40;;
33794;SDS011;51430;52.242;21.118;2022-10-13T14:19:34;10.30;;;4.80;;
33794;SDS011;51430;52.242;21.118;2022-10-13T14:23:12;8.90;;;5.20;;
33794;SDS011;51430;52.242;21.118;2022-10-13T14:26:50;10.20;;;4.70;;
33794;SDS011;51430;52.242;21.118;2022-10-13T14:30:27;7.90;;;5.00;;
33794;SDS011;51430;52.242;21.118;2022-10-13T14:34:06;11.80;;;5.70;;
33794;SDS011;51430;52.242;21.118;2022-10-13T14:37:43;14.10;;;5.30;;
33794;SDS011;51430;52.242;21.118;2022-10-13T14:41:20;11.00;;;5.00;;
33794;SDS011;51430;52.242;21.118;2022-10-13T14:44:58;10.40;;;4.90;;
33794;SDS011;51430;52.242;21.118;2022-10-13T14:48:36;15.10;;;5.50;;
33794;SDS011;51430;52.242;21.118;2022-10-13T14:52:13;8.40;;;4.70;;
33794;SDS011;51430;52.242;21.118;2022-10-13T14:55:52;12.80;;;4.60;;
33794;SDS011;51430;52.242;21.118;2022-10-13T14:59:32;8.20;;;4.40;;
33794;SDS011;51430;52.242;21.118;2022-10-13T15:03:10;8.20;;;4.10;;
33794;SDS011;51430;52.242;21.118;2022-10-13T15:06:47;8.60;;;4.40;;
33794;SDS011;51430;52.242;21.118;2022-10-13T15:10:25;8.90;;;4.20;;
33794;SDS011;51430;52.242;21.118;2022-10-13T15:14:03;11.30;;;4.50;;
33794;SDS011;51430;52.242;21.118;2022-10-13T15:17:40;11.10;;;4.60;;
33794;SDS011;51430;52.242;21.118;2022-10-13T15:21:18;10.60;;;4.10;;
33794;SDS011;51430;52.242;21.118;2022-10-13T15:24:56;13.10;;;4.10;;
33794;SDS011;51430;52.242;21.118;2022-10-13T15:28:34;10.20;;;4.00;;
33794;SDS011;51430;52.242;21.118;2022-10-13T15:32:13;14.00;;;5.60;;
33794;SDS011;51430;52.242;21.118;2022-10-13T15:35:53;7.90;;;4.70;;
33794;SDS011;51430;52.242;21.118;2022-10-13T15:39:32;11.10;;;4.50;;
33794;SDS011;51430;52.242;21.118;2022-10-13T15:43:08;11.80;;;4.70;;
33794;SDS011;51430;52.242;21.118;2022-10-13T15:46:46;12.60;;;4.50;;
33794;SDS011;51430;52.242;21.118;2022-10-13T15:50:43;11.90;;;4.10;;
33794;SDS011;51430;52.242;21.118;2022-10-13T15:54:20;11.60;;;4.50;;
33794;SDS011;51430;52.242;21.118;2022-10-13T15:57:57;13.50;;;4.30;;
33794;SDS011;51430;52.242;21.118;2022-10-13T16:01:36;12.70;;;4.40;;
33794;SDS011;51430;52.242;21.118;2022-10-13T16:05:14;11.60;;;4.80;;
33794;SDS011;51430;52.242;21.118;2022-10-13T16:08:51;11.70;;;4.80;;
33794;SDS011;51430;52.242;21.118;2022-10-13T16:12:29;11.30;;;5.20;;
33794;SDS011;51430;52.242;21.118;2022-10-13T16:16:06;13.70;;;5.30;;
33794;SDS011;51430;52.242;21.118;2022-10-13T16:19:44;12.10;;;6.20;;
33794;SDS011;51430;52.242;21.118;2022-10-13T16:23:22;13.00;;;5.30;;
33794;SDS011;51430;52.242;21.118;2022-10-13T16:26:59;12.20;;;6.50;;
33794;SDS011;51430;52.242;21.118;2022-10-13T16:30:37;10.30;;;5.10;;
33794;SDS011;51430;52.242;21.118;2022-10-13T16:34:14;11.60;;;5.00;;
33794;SDS011;51430;52.242;21.118;2022-10-13T16:37:52;10.80;;;5.10;;
33794;SDS011;51430;52.242;21.118;2022-10-13T16:41:30;13.90;;;6.10;;
33794;SDS011;51430;52.242;21.118;2022-10-13T16:45:09;11.60;;;5.40;;
33794;SDS011;51430;52.242;21.118;2022-10-13T16:48:45;12.50;;;5.60;;
33794;SDS011;51430;52.242;21.118;2022-10-13T16:52:23;12.50;;;5.40;;
33794;SDS011;51430;52.242;21.118;2022-10-13T16:56:02;16.20;;;6.30;;
33794;SDS011;51430;52.242;21.118;2022-10-13T16:59:39;16.40;;;7.20;;
33794;SDS011;51430;52.242;21.118;2022-10-13T17:03:17;15.00;;;6.60;;
33794;SDS011;51430;52.242;21.118;2022-10-13T17:06:55;12.50;;;6.20;;
33794;SDS011;51430;52.242;21.118;2022-10-13T17:10:33;15.30;;;6.90;;
33794;SDS011;51430;52.242;21.118;2022-10-13T17:14:10;13.20;;;8.00;;
33794;SDS011;51430;52.242;21.118;2022-10-13T17:17:49;20.10;;;11.20;;
33794;SDS011;51430;52.242;21.118;2022-10-13T17:21:25;28.70;;;12.80;;
33794;SDS011;51430;52.242;21.118;2022-10-13T17:25:04;21.60;;;11.20;;
33794;SDS011;51430;52.242;21.118;2022-10-13T17:28:41;23.70;;;12.90;;
33794;SDS011;51430;52.242;21.118;2022-10-13T17:32:31;25.50;;;14.10;;
33794;SDS011;51430;52.242;21.118;2022-10-13T17:36:22;23.50;;;13.30;;
33794;SDS011;51430;52.242;21.118;2022-10-13T17:40:01;22.20;;;13.10;;
33794;SDS011;51430;52.242;21.118;2022-10-13T17:43:39;24.90;;;13.30;;
33794;SDS011;51430;52.242;21.118;2022-10-13T17:47:20;25.30;;;12.40;;
33794;SDS011;51430;52.242;21.118;2022-10-13T17:51:05;21.20;;;10.80;;
33794;SDS011;51430;52.242;21.118;2022-10-13T17:54:44;19.20;;;11.10;;
33794;SDS011;51430;52.242;21.118;2022-10-13T17:58:21;24.30;;;11.80;;
33794;SDS011;51430;52.242;21.118;2022-10-13T18:01:59;21.90;;;10.50;;
33794;SDS011;51430;52.242;21.118;2022-10-13T18:05:40;20.40;;;12.00;;
33794;SDS011;51430;52.242;21.118;2022-10-13T18:09:20;23.90;;;11.60;;
33794;SDS011;51430;52.242;21.118;2022-10-13T18:12:58;20.00;;;11.00;;
33794;SDS011;51430;52.242;21.118;2022-10-13T18:16:37;19.30;;;11.20;;
33794;SDS011;51430;52.242;21.118;2022-10-13T18:20:14;20.60;;;11.20;;
33794;SDS011;51430;52.242;21.118;2022-10-13T18:23:55;17.40;;;11.40;;
33794;SDS011;51430;52.242;21.118;2022-10-13T18:27:35;18.80;;;11.30;;
33794;SDS011;51430;52.242;21.118;2022-10-13T18:31:12;22.90;;;12.50;;
33794;SDS011;51430;52.242;21.118;2022-10-13T18:35:02;22.30;;;12.70;;
33794;SDS011;51430;52.242;21.118;2022-10-13T18:38:40;21.40;;;11.80;;
33794;SDS011;51430;52.242;21.118;2022-10-13T18:42:17;22.10;;;11.70;;
33794;SDS011;51430;52.242;21.118;2022-10-13T18:46:01;20.90;;;12.00;;
33794;SDS011;51430;52.242;21.118;2022-10-13T18:49:49;24.30;;;11.90;;
33794;SDS011;51430;52.242;21.118;2022-10-13T18:53:27;19.10;;;11.50;;
33794;SDS011;51430;52.242;21.118;2022-10-13T18:57:04;23.40;;;12.30;;
33794;SDS011;51430;52.242;21.118;2022-10-13T19:00:42;19.40;;;11.70;;
33794;SDS011;51430;52.242;21.118;2022-10-13T19:04:19;20.40;;;13.10;;
33794;SDS011;51430;52.242;21.118;2022-10-13T19:07:59;24.00;;;14.50;;
33794;SDS011;51430;52.242;21.118;2022-10-13T19:11:36;25.00;;;15.20;;
33794;SDS011;51430;52.242;21.118;2022-10-13T19:15:13;25.80;;;16.40;;
33794;SDS011;51430;52.242;21.118;2022-10-13T19:18:51;26.20;;;16.00;;
33794;SDS011;51430;52.242;21.118;2022-10-13T19:22:29;25.50;;;15.30;;
33794;SDS011;51430;52.242;21.118;2022-10-13T19:29:52;27.40;;;15.40;;
33794;SDS011;51430;52.242;21.118;2022-10-13T19:33:30;25.20;;;15.50;;
33794;SDS011;51430;52.242;21.118;2022-10-13T19:37:07;25.30;;;14.50;;
33794;SDS011;51430;52.242;21.118;2022-10-13T19:40:46;23.60;;;15.10;;
33794;SDS011;51430;52.242;21.118;2022-10-13T19:44:26;23.40;;;14.30;;
33794;SDS011;51430;52.242;21.118;2022-10-13T19:48:03;23.70;;;14.10;;
33794;SDS011;51430;52.242;21.118;2022-10-13T19:51:41;24.70;;;14.40;;
33794;SDS011;51430;52.242;21.118;2022-10-13T19:55:19;27.00;;;15.40;;
33794;SDS011;51430;52.242;21.118;2022-10-13T19:58:56;23.90;;;15.30;;
33794;SDS011;51430;52.242;21.118;2022-10-13T20:02:34;26.60;;;15.90;;
33794;SDS011;51430;52.242;21.118;2022-10-13T20:06:13;23.50;;;15.00;;
33794;SDS011;51430;52.242;21.118;2022-10-13T20:09:50;32.50;;;18.90;;
33794;SDS011;51430;52.242;21.118;2022-10-13T20:13:28;27.40;;;17.20;;
33794;SDS011;51430;52.242;21.118;2022-10-13T20:17:05;29.60;;;16.40;;
33794;SDS011;51430;52.242;21.118;2022-10-13T20:20:44;28.00;;;16.10;;
33794;SDS011;51430;52.242;21.118;2022-10-13T20:24:22;27.40;;;17.40;;
33794;SDS011;51430;52.242;21.118;2022-10-13T20:27:59;25.40;;;17.50;;
33794;SDS011;51430;52.242;21.118;2022-10-13T20:31:36;33.30;;;17.70;;
33794;SDS011;51430;52.242;21.118;2022-10-13T20:35:14;33.90;;;19.20;;
33794;SDS011;51430;52.242;21.118;2022-10-13T20:38:53;29.30;;;17.40;;
33794;SDS011;51430;52.242;21.118;2022-10-13T20:42:30;28.50;;;18.10;;
33794;SDS011;51430;52.242;21.118;2022-10-13T20:46:08;25.10;;;16.80;;
33794;SDS011;51430;52.242;21.118;2022-10-13T20:49:46;29.60;;;17.20;;
33794;SDS011;51430;52.242;21.118;2022-10-13T20:53:23;25.60;;;17.50;;
33794;SDS011;51430;52.242;21.118;2022-10-13T20:57:01;27.50;;;15.90;;
33794;SDS011;51430;52.242;21.118;2022-10-13T21:00:41;27.10;;;16.40;;
33794;SDS011;51430;52.242;21.118;2022-10-13T21:04:18;23.70;;;15.50;;
33794;SDS011;51430;52.242;21.118;2022-10-13T21:07:56;26.60;;;16.50;;
33794;SDS011;51430;52.242;21.118;2022-10-13T21:11:34;25.20;;;16.40;;
33794;SDS011;51430;52.242;21.118;2022-10-13T21:15:11;29.20;;;16.40;;
33794;SDS011;51430;52.242;21.118;2022-10-13T21:18:50;30.50;;;18.60;;
33794;SDS011;51430;52.242;21.118;2022-10-13T21:22:28;26.10;;;16.80;;
33794;SDS011;51430;52.242;21.118;2022-10-13T21:26:06;27.90;;;18.00;;
33794;SDS011;51430;52.242;21.118;2022-10-13T21:29:45;26.40;;;17.40;;
33794;SDS011;51430;52.242;21.118;2022-10-13T21:33:22;38.60;;;18.60;;
33794;SDS011;51430;52.242;21.118;2022-10-13T21:36:59;28.50;;;19.70;;
33794;SDS011;51430;52.242;21.118;2022-10-13T21:40:37;31.10;;;18.90;;
33794;SDS011;51430;52.242;21.118;2022-10-13T21:44:14;26.20;;;18.30;;
33794;SDS011;51430;52.242;21.118;2022-10-13T21:47:53;29.50;;;18.20;;
33794;SDS011;51430;52.242;21.118;2022-10-13T21:51:34;28.80;;;19.80;;
33794;SDS011;51430;52.242;21.118;2022-10-13T21:55:15;29.20;;;19.30;;
33794;SDS011;51430;52.242;21.118;2022-10-13T21:58:54;30.90;;;20.10;;
33794;SDS011;51430;52.242;21.118;2022-10-13T22:02:31;31.70;;;18.80;;
33794;SDS011;51430;52.242;21.118;2022-10-13T22:06:10;29.10;;;19.30;;
33794;SDS011;51430;52.242;21.118;2022-10-13T22:09:54;30.90;;;19.00;;
33794;SDS011;51430;52.242;21.118;2022-10-13T22:13:31;30.10;;;18.90;;
33794;SDS011;51430;52.242;21.118;2022-10-13T22:17:09;30.80;;;19.80;;
33794;SDS011;51430;52.242;21.118;2022-10-13T22:20:46;28.70;;;19.40;;
33794;SDS011;51430;52.242;21.118;2022-10-13T22:24:24;31.20;;;18.70;;
33794;SDS011;51430;52.242;21.118;2022-10-13T22:28:02;29.30;;;19.70;;
33794;SDS011;51430;52.242;21.118;2022-10-13T22:31:41;27.70;;;19.30;;
33794;SDS011;51430;52.242;21.118;2022-10-13T22:35:18;29.30;;;18.30;;